Mackinaw City, MI (49701)

1:29 AM EDT on September 01, 2015 (GMT -0400)
MesoWest | | Change Station
CLOSE
Current Station
Personal Weather Station
Location: Mackinaw City, MI
Elevation: 646 ft
Nearby Weather Stations

Elev 646 ft 45.76 °N, 84.73 °W | Updated 39 minutes ago

Partly Cloudy
Partly Cloudy
61 °F
Feels Like 61 °F
N
0
Wind Variable Wind from North
Gusts 11.0 mph

Today
High -- | Low -- °F
--% Chance of Precip.
Yesterday
High -- | Low -- °F
Precip. -- in
6:59 AM 8:17 PM
Waning Gibbous, 91% visible
Pressure 30.00 in
Visibility 10.0 miles
Clouds Clear
Dew Point 60 °F
Humidity 98%
Rainfall in
Snow Depth Not available.
UV 0 out of 12
Pollen 10.50 out of 12
Air Quality Not available.
Flu Activity Not available.
METAR KMCD 010514Z AUTO 17005KT 10SM CLR 18/18 A3000 RMK AO2 T01840175
Pressure 30.00 in
Visibility 10.0 miles
Clouds Clear
Dew Point 60 °F
Humidity 98%
Rainfall in
Snow Depth Not available.
UV 0 out of 12
Pollen 10.50 out of 12
Air Quality Not available.
Flu Activity Not available.
METAR KMCD 010514Z AUTO 17005KT 10SM CLR 18/18 A3000 RMK AO2 T01840175
Nowcast | as of 1:00 am EDT on September 1, 2015

At 2 am...clear. Areas of fog. Temperature 67. Light winds. At 4 am...clear. Areas of fog. Temperature 65. Light winds. At 6 am...clear. Areas of fog. Temperature 64. Light winds. At 8 am...clear. Areas of fog. Temperature 67. Southwest winds 5 mph.

×

10-Day Weather Forecast

×

Almanac

Astronomy

Sep. 01, 2015 Rise Set
Actual Time
Civil Twilight
Nautical Twilight
Astronomical Twilight
Moon
Length of Visible Light
Length of Day
Tomorrow will be .
, % of the Moon is Illuminated

Today's Extremes

State Highs State Lows

Community

WunderPhotos

Upload Photos

1,851,481 photos uploaded!

WunderBlogs® & News

Nearby

Air Quality

  Air Quality AQ Index Pollutant
Not available.

Snow Depth

Station Depth Elevation

Earthquake Activity

City Distance Mag. Time & Date
Minimum magnitude displayed is 2.5.

Coastal Water Temperatures

Place Temperature

Stations

Nearby Weather Stations

Station Location Temp. Windchill Dew Point Humidity Wind Precip. Elev Updated Type